createdAt,value
2022-11-02T00:01:27.495Z,99281.95
2022-11-02T00:03:55.120Z,99278.56
2022-11-02T00:06:22.616Z,99274.14
2022-11-02T00:08:50.451Z,99280.01
2022-11-02T00:11:18.002Z,99285.30
2022-11-02T00:13:45.523Z,99291.14
2022-11-02T00:16:15.794Z,99291.32
2022-11-02T00:18:44.225Z,99288.64
2022-11-02T00:21:12.247Z,99286.78
2022-11-02T00:23:41.206Z,99288.11
2022-11-02T00:26:09.314Z,99292.08
2022-11-02T00:28:36.878Z,99291.55
2022-11-02T00:31:04.487Z,99293.05
2022-11-02T00:33:32.145Z,99290.41
2022-11-02T00:35:59.671Z,99294.14
2022-11-02T00:38:27.307Z,99295.16
2022-11-02T00:40:54.822Z,99294.20
2022-11-02T00:43:22.332Z,99296.67
2022-11-02T00:45:50.203Z,99299.05
2022-11-02T00:48:17.788Z,99296.73
2022-11-02T00:50:45.332Z,99303.78
2022-11-02T00:53:14.068Z,99299.21
2022-11-02T00:55:46.425Z,99295.89
2022-11-02T00:58:14.563Z,99292.89
2022-11-02T01:00:42.136Z,99301.37
2022-11-02T01:03:10.700Z,99304.52
2022-11-02T01:05:38.240Z,99302.20
2022-11-02T01:08:06.157Z,99303.86
2022-11-02T01:10:34.039Z,99301.85
2022-11-02T01:13:01.757Z,99301.64
2022-11-02T01:15:29.286Z,99302.46
2022-11-02T01:17:56.833Z,99304.35
2022-11-02T01:20:24.337Z,99306.45
2022-11-02T01:22:52.970Z,99305.28
2022-11-02T01:25:20.646Z,99301.10
2022-11-02T01:27:48.154Z,99298.05
2022-11-02T01:30:15.687Z,99297.48
2022-11-02T01:32:44.493Z,99294.34
2022-11-02T01:35:11.993Z,99297.23
2022-11-02T01:37:39.661Z,99298.83
2022-11-02T01:40:09.848Z,99304.52
2022-11-02T01:42:37.386Z,99309.48
2022-11-02T01:45:05.388Z,99301.86
2022-11-02T01:47:36.745Z,99305.11
2022-11-02T01:50:14.070Z,99306.85
2022-11-02T01:52:41.585Z,99303.93
2022-11-02T01:55:16.607Z,99307.02
2022-11-02T01:57:49.217Z,99311.13
2022-11-02T02:00:18.267Z,99309.98
2022-11-02T02:02:52.968Z,99304.66
2022-11-02T02:05:22.636Z,99305.35
2022-11-02T02:07:52.104Z,99304.69
2022-11-02T02:10:19.964Z,99305.67
2022-11-02T02:12:47.923Z,99303.15
2022-11-02T02:15:20.513Z,99306.84
2022-11-02T02:17:59.139Z,99308.73
2022-11-02T02:20:48.287Z,99307.24
2022-11-02T02:23:41.010Z,99308.13
2022-11-02T02:26:31.509Z,99311.06
2022-11-02T02:29:10.239Z,99312.20
2022-11-02T02:31:45.611Z,99315.73
2022-11-02T02:34:16.212Z,99314.92
2022-11-02T02:36:49.291Z,99316.07
2022-11-02T02:39:54.937Z,99313.89
2022-11-02T02:42:25.909Z,99312.02
2022-11-02T02:45:30.423Z,99312.58
2022-11-02T02:48:11.917Z,99311.76
2022-11-02T02:50:50.991Z,99314.82
2022-11-02T02:53:22.684Z,99316.11
2022-11-02T02:55:51.069Z,99318.92
2022-11-02T02:58:22.841Z,99318.86
2022-11-02T03:00:53.060Z,99322.71
2022-11-02T03:03:24.829Z,99328.47
2022-11-02T03:06:07.646Z,99332.56
2022-11-02T03:08:38.615Z,99336.92
2022-11-02T03:11:15.928Z,99337.81
2022-11-02T03:14:07.975Z,99338.45
2022-11-02T03:17:01.698Z,99338.45
2022-11-02T03:19:38.979Z,99343.42
2022-11-02T03:22:20.406Z,99342.56
2022-11-02T03:25:10.846Z,99346.31
2022-11-02T03:27:44.476Z,99348.16
2022-11-02T03:30:15.187Z,99346.83
2022-11-02T03:32:56.347Z,99353.62
2022-11-02T03:35:39.242Z,99351.58
2022-11-02T03:38:12.977Z,99349.81
2022-11-02T03:40:45.072Z,99349.52
2022-11-02T03:43:14.984Z,99348.98
2022-11-02T03:45:47.551Z,99350.95
2022-11-02T03:48:17.114Z,99350.24
2022-11-02T03:50:47.305Z,99352.44
2022-11-02T03:53:23.024Z,99354.63
2022-11-02T03:55:54.290Z,99356.73
2022-11-02T03:58:21.853Z,99355.41
2022-11-02T04:00:56.162Z,99358.26
2022-11-02T04:03:24.772Z,99360.23
2022-11-02T04:05:53.310Z,99360.48
2022-11-02T04:08:37.715Z,99362.90
2022-11-02T04:11:26.996Z,99368.79
2022-11-02T04:14:15.905Z,99367.20
2022-11-02T04:16:44.221Z,99362.82
2022-11-02T04:19:29.205Z,99363.83
2022-11-02T04:22:26.353Z,99367.31
2022-11-02T04:25:18.390Z,99369.02
2022-11-02T04:27:54.664Z,99372.08
2022-11-02T04:30:25.734Z,99372.16
2022-11-02T04:33:13.251Z,99366.09
2022-11-02T04:35:46.125Z,99360.66
2022-11-02T04:38:32.607Z,99358.30
2022-11-02T04:41:19.038Z,99361.71
2022-11-02T04:43:48.370Z,99364.61
2022-11-02T04:46:16.581Z,99364.73
2022-11-02T04:48:44.594Z,99368.29
2022-11-02T04:51:12.261Z,99369.25
2022-11-02T04:53:39.999Z,99373.02
2022-11-02T04:56:09.323Z,99371.33
2022-11-02T04:58:36.869Z,99369.13
2022-11-02T05:01:10.586Z,99368.64
2022-11-02T05:03:38.502Z,99365.91
2022-11-02T05:06:06.584Z,99365.75
2022-11-02T05:08:34.149Z,99365.09
2022-11-02T05:11:01.915Z,99370.62
2022-11-02T05:13:29.696Z,99375.11
2022-11-02T05:15:59.832Z,99377.14
2022-11-02T05:18:29.686Z,99379.45
2022-11-02T05:21:00.252Z,99383.66
2022-11-02T05:23:29.180Z,99387.31
2022-11-02T05:26:06.235Z,99382.70
2022-11-02T05:28:35.996Z,99386.33
2022-11-02T05:31:05.426Z,99392.31
2022-11-02T05:33:34.869Z,99389.73
2022-11-02T05:36:07.802Z,99395.76
2022-11-02T05:38:36.658Z,99397.08
2022-11-02T05:41:05.536Z,99398.60
2022-11-02T05:43:35.879Z,99401.36
2022-11-02T05:46:05.091Z,99404.59
2022-11-02T05:48:33.251Z,99405.77
2022-11-02T05:51:02.866Z,99405.05
2022-11-02T05:53:32.510Z,99411.15
2022-11-02T05:56:01.599Z,99413.90
2022-11-02T05:58:29.516Z,99413.20
2022-11-02T06:01:01.199Z,99413.62
2022-11-02T06:03:30.165Z,99419.11
2022-11-02T06:06:01.529Z,99416.58
2022-11-02T06:08:38.506Z,99420.38
2022-11-02T06:11:11.346Z,99424.13
2022-11-02T06:13:40.115Z,99424.44
2022-11-02T06:16:09.763Z,99422.19
2022-11-02T06:18:38.623Z,99421.73
2022-11-02T06:21:06.896Z,99428.41
2022-11-02T06:23:35.056Z,99426.52
2022-11-02T06:26:03.478Z,99430.38
2022-11-02T06:28:31.221Z,99432.86
2022-11-02T06:30:59.121Z,99427.09
2022-11-02T06:33:26.901Z,99430.84
2022-11-02T06:35:55.068Z,99433.71
2022-11-02T06:38:23.106Z,99434.27
2022-11-02T06:40:58.083Z,99434.90
2022-11-02T06:43:26.276Z,99437.09
2022-11-02T06:45:55.987Z,99438.25
2022-11-02T06:48:26.489Z,99441.60
2022-11-02T06:50:57.494Z,99435.69
2022-11-02T06:53:25.210Z,99444.45
2022-11-02T06:55:54.169Z,99446.61
2022-11-02T06:58:23.304Z,99441.08
2022-11-02T07:00:51.616Z,99442.48
2022-11-02T07:03:19.214Z,99442.15
2022-11-02T07:05:51.766Z,99445.56
2022-11-02T07:08:20.188Z,99448.19
2022-11-02T07:10:48.034Z,99449.41
2022-11-02T07:13:15.730Z,99449.45
2022-11-02T07:15:43.327Z,99449.98
2022-11-02T07:18:10.885Z,99446.44
2022-11-02T07:20:38.729Z,99449.98
2022-11-02T07:23:06.495Z,99448.41
2022-11-02T07:25:34.473Z,99454.06
2022-11-02T07:28:02.664Z,99452.48
2022-11-02T07:30:32.344Z,99450.37
2022-11-02T07:33:00.455Z,99448.21
2022-11-02T07:35:28.147Z,99448.58
2022-11-02T07:38:00.691Z,99449.39
2022-11-02T07:40:29.970Z,99449.48
2022-11-02T07:42:58.515Z,99449.04
2022-11-02T07:45:46.817Z,99452.40
2022-11-02T07:48:14.423Z,99449.90
2022-11-02T07:50:42.172Z,99455.70
2022-11-02T07:53:10.196Z,99453.17
2022-11-02T07:55:37.712Z,99453.08
2022-11-02T07:58:09.836Z,99451.36
2022-11-02T08:00:39.294Z,99446.17
2022-11-02T08:03:09.459Z,99446.76
2022-11-02T08:05:39.367Z,99445.88
2022-11-02T08:08:10.322Z,99443.23
2022-11-02T08:10:40.439Z,99446.30
2022-11-02T08:13:09.690Z,99441.94
2022-11-02T08:15:37.565Z,99437.70
2022-11-02T08:18:13.574Z,99437.89
2022-11-02T08:20:41.677Z,99436.44
2022-11-02T08:23:10.494Z,99433.48
2022-11-02T08:25:39.277Z,99433.45
2022-11-02T08:28:08.647Z,99429.40
2022-11-02T08:30:37.704Z,99429.20
2022-11-02T08:33:15.622Z,99427.04
2022-11-02T08:35:44.646Z,99430.96
2022-11-02T08:38:12.627Z,99431.17
2022-11-02T08:40:40.783Z,99429.92
2022-11-02T08:43:13.041Z,99434.05
2022-11-02T08:46:13.239Z,99432.02
2022-11-02T08:48:31.771Z,99431.36
2022-11-02T08:50:59.354Z,99426.32
2022-11-02T08:53:27.035Z,99428.06
2022-11-02T08:55:58.129Z,99428.75
2022-11-02T08:58:26.161Z,99427.93
2022-11-02T09:00:54.265Z,99434.66
2022-11-02T09:03:26.901Z,99435.46
2022-11-02T09:06:00.116Z,99434.23
2022-11-02T09:08:28.934Z,99442.21
2022-11-02T09:11:02.041Z,99437.15
2022-11-02T09:13:29.802Z,99435.32
2022-11-02T09:15:58.934Z,99431.66
2022-11-02T09:18:26.944Z,99427.95
2022-11-02T09:20:54.860Z,99428.05
2022-11-02T09:23:23.246Z,99421.23
2022-11-02T09:25:51.033Z,99428.85
2022-11-02T09:28:18.656Z,99430.48
2022-11-02T09:30:46.324Z,99429.81
2022-11-02T09:33:13.903Z,99426.44
2022-11-02T09:35:44.560Z,99426.79
2022-11-02T09:38:12.615Z,99429.70
2022-11-02T09:40:46.023Z,99429.64
2022-11-02T09:43:48.241Z,99426.97
2022-11-02T09:46:19.980Z,99431.40
2022-11-02T09:48:57.214Z,99431.76
2022-11-02T09:51:28.205Z,99430.02
2022-11-02T09:54:05.904Z,99434.25
2022-11-02T09:56:34.643Z,99433.70
2022-11-02T09:59:17.024Z,99438.65
2022-11-02T10:02:19.701Z,99438.41
2022-11-02T10:05:08.742Z,99442.66
2022-11-02T10:08:24.040Z,99442.69
2022-11-02T10:11:08.056Z,99440.42
2022-11-02T10:13:42.819Z,99440.10
2022-11-02T10:16:14.964Z,99440.21
2022-11-02T10:18:43.727Z,99440.87
2022-11-02T10:21:14.483Z,99437.88
2022-11-02T10:23:49.066Z,99446.23
2022-11-02T10:26:20.027Z,99443.45
2022-11-02T10:28:49.361Z,99442.19
2022-11-02T10:31:31.566Z,99443.39
2022-11-02T10:34:05.817Z,99440.95
2022-11-02T10:37:15.135Z,99440.44
2022-11-02T10:40:13.128Z,99440.55
2022-11-02T10:42:49.131Z,99440.30
2022-11-02T10:45:44.132Z,99442.15
2022-11-02T10:48:23.087Z,99441.59
2022-11-02T10:51:03.321Z,99439.30
2022-11-02T10:53:41.747Z,99433.50
2022-11-02T10:56:24.530Z,99434.63
2022-11-02T10:59:18.725Z,99431.36
2022-11-02T11:02:03.774Z,99430.17
2022-11-02T11:04:33.284Z,99431.40
2022-11-02T11:07:15.244Z,99429.52
2022-11-02T11:09:49.509Z,99435.54
2022-11-02T11:12:22.119Z,99432.61
2022-11-02T11:20:38.681Z,99431.55
2022-11-02T11:23:19.696Z,99433.43
2022-11-02T11:26:00.640Z,99429.88
2022-11-02T11:28:33.740Z,99428.29
2022-11-02T11:31:16.137Z,99428.95
2022-11-02T11:33:55.749Z,99424.77
2022-11-02T11:36:30.467Z,99423.31
2022-11-02T11:39:04.499Z,99422.14
2022-11-02T11:41:34.157Z,99416.05
2022-11-02T11:44:03.209Z,99416.85
2022-11-02T11:46:48.596Z,99412.20
2022-11-02T11:50:02.820Z,99408.98
2022-11-02T11:52:31.614Z,99411.16
2022-11-02T11:55:24.135Z,99408.77
2022-11-02T11:58:23.295Z,99408.89
2022-11-02T12:01:12.399Z,99406.61
2022-11-02T12:03:57.649Z,99406.61
2022-11-02T12:06:56.621Z,99408.94
2022-11-02T12:09:47.455Z,99402.34
2022-11-02T12:12:25.489Z,99402.86
2022-11-02T12:15:27.575Z,99404.52
2022-11-02T12:18:20.194Z,99404.13
2022-11-02T12:20:59.223Z,99408.51
2022-11-02T12:23:36.544Z,99404.05
2022-11-02T12:26:23.018Z,99401.77
2022-11-02T12:29:17.759Z,99403.84
2022-11-02T12:31:49.131Z,99406.16
2022-11-02T12:34:31.155Z,99417.23
2022-11-02T12:37:41.946Z,99417.23
2022-11-02T12:40:14.726Z,99423.58
2022-11-02T12:42:51.102Z,99423.45
2022-11-02T12:45:56.903Z,99422.89
2022-11-02T12:48:49.797Z,99421.91
2022-11-02T12:51:33.483Z,99419.02
2022-11-02T12:54:07.583Z,99426.76
2022-11-02T12:56:51.692Z,99417.69
2022-11-02T12:59:25.331Z,99413.15
2022-11-02T13:01:57.798Z,99419.71
2022-11-02T13:04:31.083Z,99417.66
2022-11-02T13:07:06.905Z,99416.31
2022-11-02T13:09:41.539Z,99420.33
2022-11-02T13:12:17.997Z,99418.42
2022-11-02T13:14:47.794Z,99419.95
2022-11-02T13:17:26.121Z,99421.22
2022-11-02T13:19:57.708Z,99417.16
2022-11-02T13:22:30.969Z,99420.06
2022-11-02T13:25:05.682Z,99420.16
2022-11-02T13:27:38.797Z,99418.67
2022-11-02T13:30:15.142Z,99414.80
2022-11-02T13:32:46.931Z,99414.50
2022-11-02T13:35:20.230Z,99415.42
2022-11-02T13:37:56.112Z,99418.89
2022-11-02T13:40:31.669Z,99420.91
2022-11-02T13:43:08.217Z,99422.59
2022-11-02T13:45:47.324Z,99426.24
2022-11-02T13:48:27.556Z,99420.78
2022-11-02T13:50:57.948Z,99415.79
2022-11-02T13:53:30.893Z,99418.70
2022-11-02T13:56:09.315Z,99418.40
2022-11-02T13:58:41.265Z,99416.02
2022-11-02T14:01:10.310Z,99416.83
2022-11-02T14:03:49.200Z,99415.60
2022-11-02T14:06:18.589Z,99412.30
2022-11-02T14:09:03.418Z,99407.91
2022-11-02T14:11:35.972Z,99410.83
2022-11-02T14:14:04.231Z,99410.77
2022-11-02T14:16:50.023Z,99408.73
2022-11-02T14:19:20.202Z,99410.70
2022-11-02T14:21:51.148Z,99408.54
2022-11-02T14:24:36.812Z,99411.34
2022-11-02T14:27:24.379Z,99410.39
2022-11-02T14:29:54.505Z,99415.27
2022-11-02T14:32:28.353Z,99415.10
2022-11-02T14:34:58.688Z,99418.36
2022-11-02T14:37:26.259Z,99419.29
2022-11-02T14:40:02.823Z,99421.61
2022-11-02T14:42:34.466Z,99423.20
2022-11-02T14:45:16.963Z,99429.55
2022-11-02T14:47:44.705Z,99426.94
2022-11-02T14:50:12.232Z,99426.79
2022-11-02T14:52:41.719Z,99431.27
2022-11-02T14:55:38.380Z,99434.98
2022-11-02T14:58:15.341Z,99433.81
2022-11-02T15:00:49.087Z,99435.52
2022-11-02T15:03:25.937Z,99435.81
2022-11-02T15:06:03.881Z,99435.44
2022-11-02T15:08:34.889Z,99441.64
2022-11-02T15:11:40.545Z,99443.85
2022-11-02T15:14:41.500Z,99440.00
2022-11-02T15:17:15.333Z,99439.14
2022-11-02T15:19:49.659Z,99437.98
2022-11-02T15:22:37.088Z,99440.33
2022-11-02T15:25:24.350Z,99444.05
2022-11-02T15:27:56.147Z,99447.16
2022-11-02T15:30:28.026Z,99451.34
2022-11-02T15:33:02.734Z,99454.55
2022-11-02T15:35:33.983Z,99460.58
2022-11-02T15:38:17.169Z,99463.30
2022-11-02T15:40:58.121Z,99465.48
2022-11-02T15:43:50.524Z,99468.11
2022-11-02T15:46:36.762Z,99464.02
2022-11-02T15:49:19.924Z,99467.88
2022-11-02T15:52:11.931Z,99467.56
2022-11-02T15:54:47.491Z,99470.10
2022-11-02T15:57:37.043Z,99467.31
2022-11-02T16:00:11.970Z,99470.13
2022-11-02T16:02:44.820Z,99471.67
2022-11-02T16:05:26.976Z,99470.37
2022-11-02T16:08:10.370Z,99477.87
2022-11-02T16:10:38.960Z,99476.55
2022-11-02T16:13:16.945Z,99481.39
2022-11-02T16:15:46.740Z,99480.20
2022-11-02T16:18:37.084Z,99479.30
2022-11-02T16:21:06.683Z,99485.05
2022-11-02T16:23:36.579Z,99482.71
2022-11-02T16:26:08.880Z,99485.72
2022-11-02T16:28:37.740Z,99483.44
2022-11-02T16:31:21.304Z,99481.88
2022-11-02T16:33:57.266Z,99484.83
2022-11-02T16:36:27.940Z,99484.99
2022-11-02T16:39:01.226Z,99486.14
2022-11-02T16:41:31.291Z,99484.86
2022-11-02T16:44:02.824Z,99489.30
2022-11-02T16:46:40.000Z,99487.55
2022-11-02T16:49:13.560Z,99486.63
2022-11-02T16:51:48.344Z,99493.59
2022-11-02T16:54:34.401Z,99491.69
2022-11-02T16:57:12.841Z,99490.30
2022-11-02T16:59:59.201Z,99491.95
2022-11-02T17:02:32.441Z,99494.81
2022-11-02T17:05:05.799Z,99495.31
2022-11-02T17:07:39.189Z,99495.77
2022-11-02T17:10:07.417Z,99501.37
2022-11-02T17:12:42.435Z,99503.93
2022-11-02T17:15:19.534Z,99506.66
2022-11-02T17:17:47.140Z,99507.88
2022-11-02T17:20:15.286Z,99506.48
2022-11-02T17:22:58.029Z,99511.21
2022-11-02T17:25:32.901Z,99512.80
2022-11-02T17:28:02.743Z,99509.45
2022-11-02T17:30:30.561Z,99513.48
2022-11-02T17:32:58.840Z,99513.02
2022-11-02T17:35:27.724Z,99512.94
2022-11-02T17:37:55.521Z,99511.91
2022-11-02T17:40:23.187Z,99513.37
2022-11-02T17:42:59.979Z,99509.41
2022-11-02T17:45:37.242Z,99511.55
2022-11-02T17:48:06.947Z,99516.21
2022-11-02T17:50:36.363Z,99516.53
2022-11-02T17:53:05.242Z,99519.23
2022-11-02T17:55:34.457Z,99510.33
2022-11-02T17:58:02.058Z,99515.16
2022-11-02T18:00:29.715Z,99520.06
2022-11-02T18:02:58.614Z,99522.57
2022-11-02T18:05:31.488Z,99519.48
2022-11-02T18:07:59.201Z,99519.02
2022-11-02T18:10:32.689Z,99518.25
2022-11-02T18:13:00.542Z,99523.14
2022-11-02T18:15:30.537Z,99523.11
2022-11-02T18:17:59.543Z,99522.84
2022-11-02T18:20:28.145Z,99521.79
2022-11-02T18:22:56.930Z,99528.80
2022-11-02T18:25:26.543Z,99530.58
2022-11-02T18:27:54.177Z,99529.73
2022-11-02T18:30:21.957Z,99533.10
2022-11-02T18:32:49.854Z,99531.05
2022-11-02T18:35:19.108Z,99535.52
2022-11-02T18:37:47.130Z,99537.21
2022-11-02T18:40:17.304Z,99542.33
2022-11-02T18:42:45.535Z,99545.55
2022-11-02T18:45:15.440Z,99544.80
2022-11-02T18:47:43.230Z,99549.44
2022-11-02T18:50:12.547Z,99548.70
2022-11-02T18:52:42.125Z,99548.81
2022-11-02T18:55:09.694Z,99546.13
2022-11-02T18:57:37.296Z,99549.89
2022-11-02T19:00:05.274Z,99548.49
2022-11-02T19:02:33.511Z,99552.63
2022-11-02T19:05:01.221Z,99549.91
2022-11-02T19:07:47.760Z,99554.85
2022-11-02T19:10:15.437Z,99558.62
2022-11-02T19:12:43.095Z,99556.67
2022-11-02T19:15:10.674Z,99558.09
2022-11-02T19:17:39.471Z,99555.09
2022-11-02T19:20:07.570Z,99558.13
2022-11-02T19:22:35.191Z,99558.98
2022-11-02T19:25:02.997Z,99563.05
2022-11-02T19:27:30.570Z,99564.20
2022-11-02T19:29:58.178Z,99561.48
2022-11-02T19:32:25.785Z,99560.66
2022-11-02T19:34:53.345Z,99560.80
2022-11-02T19:37:20.992Z,99563.59
2022-11-02T19:39:48.572Z,99558.09
2022-11-02T19:42:16.151Z,99558.09
2022-11-02T19:44:43.731Z,99563.38
2022-11-02T19:47:11.279Z,99569.77
2022-11-02T19:49:38.849Z,99566.19
2022-11-02T19:52:06.502Z,99567.39
2022-11-02T19:54:34.096Z,99568.72
2022-11-02T19:57:01.685Z,99581.96
2022-11-02T19:59:30.515Z,99579.95
2022-11-02T20:01:58.200Z,99571.94
2022-11-02T20:04:26.463Z,99566.71
2022-11-02T20:06:54.155Z,99573.86
2022-11-02T20:09:21.794Z,99574.27
2022-11-02T20:11:49.423Z,99577.45
2022-11-02T20:14:18.230Z,99574.02
2022-11-02T20:16:58.217Z,99573.33
2022-11-02T20:19:32.400Z,99574.20
2022-11-02T20:21:59.983Z,99577.08
2022-11-02T20:24:27.603Z,99576.63
2022-11-02T20:27:01.039Z,99579.14
2022-11-02T20:29:29.528Z,99582.90
2022-11-02T20:31:57.228Z,99594.63
2022-11-02T20:34:24.840Z,99595.45
2022-11-02T20:36:52.522Z,99595.05
2022-11-02T20:39:20.177Z,99599.60
2022-11-02T20:41:47.807Z,99603.95
2022-11-02T20:44:17.048Z,99606.52
2022-11-02T20:46:51.833Z,99609.34
2022-11-02T20:49:44.292Z,99606.02
2022-11-02T20:52:10.206Z,99612.29
2022-11-02T20:54:37.777Z,99609.84
2022-11-02T20:57:05.595Z,99606.34
2022-11-02T20:59:33.167Z,99608.02
2022-11-02T21:02:00.814Z,99613.92
2022-11-02T21:04:28.582Z,99618.67
2022-11-02T21:06:56.186Z,99625.77
2022-11-02T21:09:23.803Z,99627.60
2022-11-02T21:12:10.305Z,99632.15
2022-11-02T21:14:37.935Z,99633.93
2022-11-02T21:17:06.763Z,99630.46
2022-11-02T21:19:34.397Z,99625.44
2022-11-02T21:22:02.389Z,99624.48
2022-11-02T21:24:30.274Z,99623.06
2022-11-02T21:26:57.939Z,99623.75
2022-11-02T21:29:25.594Z,99624.23
2022-11-02T21:31:53.293Z,99630.99
2022-11-02T21:34:20.882Z,99627.52
2022-11-02T21:36:48.834Z,99623.90
2022-11-02T21:39:16.576Z,99623.52
2022-11-02T21:41:44.246Z,99622.38
2022-11-02T21:44:12.016Z,99624.69
2022-11-02T21:46:39.606Z,99627.55
2022-11-02T21:49:07.333Z,99625.83
2022-11-02T21:51:36.193Z,99619.05
2022-11-02T21:54:03.982Z,99623.41
2022-11-02T21:56:31.980Z,99618.85
2022-11-02T21:58:59.716Z,99619.01
2022-11-02T22:01:45.363Z,99622.55
2022-11-02T22:04:31.672Z,99628.79
2022-11-02T22:07:00.465Z,99626.25
2022-11-02T22:09:28.885Z,99626.63
2022-11-02T22:12:15.595Z,99627.90
2022-11-02T22:14:44.541Z,99628.61
2022-11-02T22:17:21.989Z,99631.42
2022-11-02T22:20:00.192Z,99630.30
2022-11-02T22:22:27.824Z,99634.75
2022-11-02T22:24:55.406Z,99629.95
2022-11-02T22:27:23.001Z,99632.02
2022-11-02T22:29:50.548Z,99631.35
2022-11-02T22:32:18.121Z,99634.83
2022-11-02T22:34:46.892Z,99639.07
2022-11-02T22:37:37.415Z,99642.20
2022-11-02T22:40:05.460Z,99644.21
2022-11-02T22:42:34.173Z,99645.55
2022-11-02T22:45:04.939Z,99649.05
2022-11-02T22:47:32.502Z,99652.35
2022-11-02T22:50:00.083Z,99653.84
2022-11-02T22:52:27.665Z,99657.87
2022-11-02T22:54:55.266Z,99662.23
2022-11-02T22:57:22.810Z,99659.53
2022-11-02T22:59:50.370Z,99667.03
2022-11-02T23:02:17.962Z,99668.27
2022-11-02T23:04:45.577Z,99671.02
2022-11-02T23:07:13.147Z,99669.16
2022-11-02T23:09:41.017Z,99678.30
2022-11-02T23:12:08.580Z,99680.50
2022-11-02T23:14:36.165Z,99678.89
2022-11-02T23:17:03.736Z,99678.39
2022-11-02T23:19:31.764Z,99673.34
2022-11-02T23:22:22.475Z,99679.88
2022-11-02T23:25:12.450Z,99677.98
2022-11-02T23:28:06.818Z,99676.10
2022-11-02T23:30:55.134Z,99677.15
2022-11-02T23:33:25.150Z,99680.76
2022-11-02T23:36:25.031Z,99680.52
2022-11-02T23:39:11.352Z,99683.40
2022-11-02T23:41:39.076Z,99682.14
2022-11-02T23:44:13.916Z,99683.15
2022-11-02T23:46:43.760Z,99682.09
2022-11-02T23:49:12.801Z,99686.52
2022-11-02T23:51:59.241Z,99690.55
2022-11-02T23:54:45.867Z,99688.92
2022-11-02T23:57:13.585Z,99693.91
2022-11-02T23:59:41.257Z,99694.96
